Terminal Aerodrome Forecast
Issued by NWS

Home | Current Version | Previous Version | Text Only | Print | Product List | Glossary Off
Versions: 1 2 3 4 5 6 7 8 9 10 11 12 13 14

000
FTUS43 KICT 210600 AAA
TAFCNU
TAF AMD
KCNU 210608Z 2106/2206 VRB03KT P6SM VCSH BKN060
     FM211000 01012KT P6SM SCT250
     FM211500 01007KT P6SM SCT250=

USA.gov is the U.S. government's official web portal to all federal, state and local government web resources and services.